Time;durP1;ratioP1;P1;durP2;ratioP2;P2;SDS_P1;SDS_P2;PMS_P1;PMS_P2;Temp;Humidity;BMP_temperature;BMP_pressure;BME280_temperature;BME280_humidity;BME280_pressure;Samples;Min_cycle;Max_cycle;Signal;HPM_P1;HPM_P2
2021/05/17 00:00:17;;;;;;;;;;;;;;;19.24;68.72;100051.63;5036405;28;1406;-45
2021/05/17 00:02:48;;;;;;;;;;;;;;;19.23;69.28;100055.31;5035494;28;1402;-45
2021/05/17 00:05:18;;;;;;;;;;;;;;;19.23;68.82;100055.31;5035991;28;1155;-45
2021/05/17 00:07:45;;;;;;;;;;;;;;;19.22;69.13;100059.00;5035236;28;1417;-45
2021/05/17 00:10:23;;;;;;;;;;;;;;;19.22;69.09;100049.09;5035566;28;1906;-46
2021/05/17 00:12:53;;;;;;;;;;;;;;;19.19;68.87;100045.88;5035563;28;1422;-45
2021/05/17 00:15:24;;;;;;;;;;;;;;;19.26;68.73;100044.28;5034546;28;1774;-45
2021/05/17 00:17:55;;;;;;;;;;;;;;;19.22;68.50;100053.63;5024247;28;1425;-45
2021/05/17 00:20:24;;;;;;;;;;;;;;;19.23;68.89;100050.78;5034351;28;1457;-46
2021/05/17 00:22:54;;;;;;;;;;;;;;;19.23;68.61;100036.53;5036005;28;1569;-45
2021/05/17 00:25:27;;;;;;;;;;;;;;;19.23;68.71;100040.06;5035352;28;1625;-46
2021/05/17 00:27:55;;;;;;;;;;;;;;;19.23;69.48;100039.22;5035038;28;1716;-45
2021/05/17 00:30:26;;;;;;;;;;;;;;;19.21;68.39;100047.41;5033509;28;1930;-45
2021/05/17 00:32:53;;;;;;;;;;;;;;;19.22;68.62;100043.75;5027179;28;1415;-46
2021/05/17 00:35:21;;;;;;;;;;;;;;;19.24;68.90;100019.47;5034794;28;1624;-45
2021/05/17 00:37:49;;;;;;;;;;;;;;;19.22;68.10;100022.31;5035422;28;1099;-45
2021/05/17 00:40:31;;;;;;;;;;;;;;;19.28;68.83;100053.00;5034943;28;2194;-45
2021/05/17 00:43:00;;;;;;;;;;;;;;;19.25;68.63;100021.13;5035551;28;1143;-45
2021/05/17 00:45:27;;;;;;;;;;;;;;;19.22;69.06;100016.09;5034619;28;1847;-45
2021/05/17 00:47:57;;;;;;;;;;;;;;;19.20;68.78;100023.44;5033621;28;1931;-45
2021/05/17 00:50:36;;;;;;;;;;;;;;;19.20;69.04;100032.34;5034010;28;1906;-45
2021/05/17 00:53:04;;;;;;;;;;;;;;;19.19;68.98;100016.41;5030195;28;1838;-45
2021/05/17 00:55:31;;;;;;;;;;;;;;;19.19;68.60;100032.47;5034182;28;1573;-45
2021/05/17 00:57:58;;;;;;;;;;;;;;;19.21;68.61;100034.00;5034304;28;1251;-45
2021/05/17 01:00:26;;;;;;;;;;;;;;;19.22;68.92;100021.47;5028328;28;1676;-46
2021/05/17 01:02:52;;;;;;;;;;;;;;;19.18;68.69;100020.94;5034201;28;1490;-46
2021/05/17 01:05:19;;;;;;;;;;;;;;;19.19;68.29;100036.00;5033981;28;1425;-45
2021/05/17 01:07:47;;;;;;;;;;;;;;;19.17;68.40;100018.41;5035339;28;1060;-46
2021/05/17 01:10:18;;;;;;;;;;;;;;;19.21;68.44;100031.31;5034144;28;1902;-45
2021/05/17 01:12:45;;;;;;;;;;;;;;;19.23;68.38;100047.25;5034416;28;1597;-45
2021/05/17 01:15:15;;;;;;;;;;;;;;;19.19;68.38;100036.00;5034972;28;1833;-46
2021/05/17 01:17:44;;;;;;;;;;;;;;;19.19;67.85;100036.00;5034415;28;1665;-45
2021/05/17 01:20:14;;;;;;;;;;;;;;;19.18;68.04;100025.44;5033826;28;1716;-45
2021/05/17 01:23:01;;;;;;;;;;;;;;;19.18;68.15;100015.56;5031626;28;1429;-45
2021/05/17 01:25:32;;;;;;;;;;;;;;;19.15;67.72;100023.06;5026674;28;1959;-46
2021/05/17 01:27:59;;;;;;;;;;;;;;;19.18;67.99;100010.22;5033985;28;1677;-46
2021/05/17 01:30:27;;;;;;;;;;;;;;;19.19;67.27;100013.72;5033857;28;1902;-46
2021/05/17 01:32:55;;;;;;;;;;;;;;;19.18;67.70;100030.78;5034145;28;1821;-46
2021/05/17 01:35:24;;;;;;;;;;;;;;;19.16;67.72;100006.84;5029063;28;1728;-45
2021/05/17 01:37:51;;;;;;;;;;;;;;;19.17;67.75;100013.03;5034747;28;1078;-45
2021/05/17 01:40:21;;;;;;;;;;;;;;;19.18;67.94;100017.38;5034031;28;1973;-45
2021/05/17 01:42:48;;;;;;;;;;;;;;;19.12;67.55;100020.69;5020381;28;1576;-45
2021/05/17 01:45:17;;;;;;;;;;;;;;;19.17;68.06;100021.06;5030421;28;1892;-45
2021/05/17 01:47:56;;;;;;;;;;;;;;;19.15;68.03;100018.53;5033626;28;1577;-45
2021/05/17 01:53:06;;;;;;;;;;;;;;;19.16;67.94;100014.03;5025994;28;1674;-45
2021/05/17 01:55:33;;;;;;;;;;;;;;;19.20;67.61;100021.63;5030065;28;1696;-45
2021/05/17 01:58:08;;;;;;;;;;;;;;;19.15;67.83;100015.03;5033226;28;2090;-45
2021/05/17 02:00:35;;;;;;;;;;;;;;;19.15;68.01;100007.00;5046412;23;3775;-64
2021/05/17 02:03:01;;;;;;;;;;;;;;;19.12;67.94;100010.84;5020466;28;1589;-59
2021/05/17 02:05:27;;;;;;;;;;;;;;;19.12;67.59;100015.31;5027036;28;1382;-66
2021/05/17 02:07:54;;;;;;;;;;;;;;;19.15;67.21;100025.75;5024573;28;1735;-59
2021/05/17 02:10:20;;;;;;;;;;;;;;;19.12;67.62;100010.84;5023989;28;1906;-59
2021/05/17 02:12:47;;;;;;;;;;;;;;;19.14;67.18;100002.63;5026614;28;1521;-59
2021/05/17 02:15:16;;;;;;;;;;;;;;;19.12;67.87;100009.97;5024692;28;1444;-65
2021/05/17 02:17:43;;;;;;;;;;;;;;;19.12;67.44;100026.03;5024889;28;1495;-65
2021/05/17 02:20:13;;;;;;;;;;;;;;;19.12;67.85;100015.31;5022520;28;1064;-59
2021/05/17 02:22:41;;;;;;;;;;;;;;;19.13;68.34;100011.66;5024312;28;1020;-59
2021/05/17 02:25:08;;;;;;;;;;;;;;;19.12;67.40;100012.66;5016632;28;1706;-58
2021/05/17 02:27:34;;;;;;;;;;;;;;;19.11;67.36;100008.31;5030212;28;1478;-65
2021/05/17 02:30:00;;;;;;;;;;;;;;;19.13;66.86;100001.78;5029157;28;1426;-59
2021/05/17 02:32:27;;;;;;;;;;;;;;;19.07;67.23;100005.09;5027113;28;1969;-59
2021/05/17 02:34:54;;;;;;;;;;;;;;;19.10;67.90;100006.59;5029682;28;1525;-64
2021/05/17 02:37:20;;;;;;;;;;;;;;;19.10;67.16;100001.25;5025902;28;1335;-58
2021/05/17 02:39:47;;;;;;;;;;;;;;;19.11;67.91;100019.84;5015337;28;1593;-59
2021/05/17 02:42:17;;;;;;;;;;;;;;;19.07;67.45;100005.91;5031443;28;1343;-59
2021/05/17 02:44:43;;;;;;;;;;;;;;;19.08;67.69;100015.66;5026389;28;1709;-59
2021/05/17 02:47:09;;;;;;;;;;;;;;;19.05;67.40;100015.94;5021980;28;1593;-59
2021/05/17 02:49:36;;;;;;;;;;;;;;;19.09;67.15;100016.50;5021775;28;1498;-59
2021/05/17 02:52:03;;;;;;;;;;;;;;;19.08;67.18;100026.38;5019093;28;1906;-59
2021/05/17 02:54:30;;;;;;;;;;;;;;;19.13;67.00;100036.63;5029472;28;1529;-65
2021/05/17 02:57:09;;;;;;;;;;;;;;;19.08;67.43;100021.00;5023263;28;1517;-59
2021/05/17 02:59:53;;;;;;;;;;;;;;;19.10;67.42;100038.75;5022428;28;1499;-60
2021/05/17 03:02:21;;;;;;;;;;;;;;;19.07;67.55;100038.06;5022143;28;1634;-66
2021/05/17 03:04:52;;;;;;;;;;;;;;;19.07;66.91;100040.75;5022320;28;1391;-65
2021/05/17 03:07:19;;;;;;;;;;;;;;;19.08;67.19;100036.25;5021886;28;1068;-65
2021/05/17 03:09:45;;;;;;;;;;;;;;;19.08;66.93;100042.44;5027556;28;1505;-65
2021/05/17 03:12:12;;;;;;;;;;;;;;;19.05;67.45;100033.88;5028201;28;1902;-59
2021/05/17 03:14:39;;;;;;;;;;;;;;;19.05;67.15;100037.38;5025662;28;1439;-59
2021/05/17 03:17:09;;;;;;;;;;;;;;;19.07;66.78;100046.13;5026612;28;1523;-65
2021/05/17 03:19:36;;;;;;;;;;;;;;;19.10;67.63;100034.25;5027912;28;984;-59
2021/05/17 03:22:04;;;;;;;;;;;;;;;19.06;66.67;100038.25;5028575;28;1261;-60
2021/05/17 03:24:33;;;;;;;;;;;;;;;19.06;67.02;100044.44;5033441;28;1427;-59
2021/05/17 03:27:08;;;;;;;;;;;;;;;19.05;66.75;100029.34;5026036;28;1607;-66
2021/05/17 03:29:34;;;;;;;;;;;;;;;19.05;66.46;100032.03;5025501;28;1977;-59
2021/05/17 03:32:00;;;;;;;;;;;;;;;19.05;66.79;100040.06;5025188;28;1906;-65
2021/05/17 03:34:26;;;;;;;;;;;;;;;19.05;66.59;100028.50;5029902;28;1375;-65
2021/05/17 03:36:52;;;;;;;;;;;;;;;19.07;66.43;100035.38;5030555;28;1370;-65
2021/05/17 03:39:19;;;;;;;;;;;;;;;19.10;67.00;100038.75;5033913;28;1602;-66
2021/05/17 03:41:45;;;;;;;;;;;;;;;19.12;66.57;100018.00;5026038;28;1064;-59
2021/05/17 03:44:11;;;;;;;;;;;;;;;19.15;66.35;100031.13;5018822;28;1698;-67
2021/05/17 03:46:37;;;;;;;;;;;;;;;19.20;66.92;100031.47;5031670;28;1359;-59
2021/05/17 03:49:03;;;;;;;;;;;;;;;19.24;66.28;100043.59;5030928;28;1439;-59
2021/05/17 03:51:29;;;;;;;;;;;;;;;19.20;66.28;100045.75;5031997;28;1910;-65
2021/05/17 03:53:56;;;;;;;;;;;;;;;19.22;66.35;100059.81;5034704;28;1333;-66
2021/05/17 03:56:22;;;;;;;;;;;;;;;19.24;66.00;100055.16;5029327;28;1269;-66
2021/05/17 03:58:48;;;;;;;;;;;;;;;19.44;66.34;100047.78;5032778;28;1367;-65
2021/05/17 04:01:16;;;;;;;;;;;;;;;19.34;64.47;100063.13;5031498;28;1541;-63
2021/05/17 04:03:42;;;;;;;;;;;;;;;19.43;64.35;100055.97;5024879;28;1415;-59
2021/05/17 04:06:14;;;;;;;;;;;;;;;19.41;63.61;100074.88;5033120;28;1563;-65
2021/05/17 04:14:09;;;;;;;;;;;;;;;19.36;64.22;100077.22;5032817;28;1663;-59
2021/05/17 04:16:35;;;;;;;;;;;;;;;19.41;64.30;100093.66;5028183;28;1745;-64
2021/05/17 04:19:01;;;;;;;;;;;;;;;19.46;62.88;100077.13;5028938;28;1728;-64
2021/05/17 04:21:28;;;;;;;;;;;;;;;19.51;61.78;100096.25;5021339;28;1387;-58
2021/05/17 04:23:54;;;;;;;;;;;;;;;19.62;62.53;100082.59;5029987;28;1394;-58
2021/05/17 04:26:20;;;;;;;;;;;;;;;19.62;62.15;100089.81;5031133;28;1398;-64
2021/05/17 04:28:47;;;;;;;;;;;;;;;19.78;63.00;100092.66;5024495;28;1609;-64
2021/05/17 04:31:13;;;;;;;;;;;;;;;19.79;62.88;100091.63;5024304;28;1981;-58
2021/05/17 04:33:39;;;;;;;;;;;;;;;19.75;62.13;100094.78;5033301;28;1433;-64
2021/05/17 04:36:05;;;;;;;;;;;;;;;19.76;64.12;100097.31;5027816;28;1606;-58
2021/05/17 04:38:31;;;;;;;;;;;;;;;19.79;64.26;100098.84;5032974;28;1165;-58
2021/05/17 04:40:57;;;;;;;;;;;;;;;19.94;65.19;100093.75;5024948;28;1665;-64
2021/05/17 04:43:23;;;;;;;;;;;;;;;19.98;64.29;100087.91;5032069;28;1532;-58
2021/05/17 04:45:50;;;;;;;;;;;;;;;19.91;64.89;100091.38;5028143;28;1165;-64
2021/05/17 04:48:16;;;;;;;;;;;;;;;19.90;64.81;100077.13;5027989;28;1428;-59
2021/05/17 04:50:42;;;;;;;;;;;;;;;19.93;64.39;100084.00;5027806;28;1910;-58
2021/05/17 04:53:08;;;;;;;;;;;;;;;20.01;63.71;100090.25;5024849;28;1734;-64
2021/05/17 04:55:35;;;;;;;;;;;;;;;19.97;64.59;100086.22;5023500;28;1461;-64
2021/05/17 04:58:01;;;;;;;;;;;;;;;19.86;64.61;100073.91;5024202;28;1630;-64
2021/05/17 05:00:27;;;;;;;;;;;;;;;19.86;64.96;100083.81;5021871;28;1614;-64
2021/05/17 05:02:54;;;;;;;;;;;;;;;19.81;64.30;100084.25;5028913;28;1578;-59
2021/05/17 05:05:20;;;;;;;;;;;;;;;19.83;64.79;100084.13;5026586;28;1637;-58
2021/05/17 05:07:47;;;;;;;;;;;;;;;19.91;64.43;100086.00;5034691;28;1572;-59
2021/05/17 05:10:13;;;;;;;;;;;;;;;19.94;61.80;100097.28;5031478;28;1535;-57
2021/05/17 05:12:39;;;;;;;;;;;;;;;19.93;61.90;100082.16;5027970;28;1906;-58
2021/05/17 05:15:06;;;;;;;;;;;;;;;19.89;62.90;100093.38;5023454;28;1530;-57
2021/05/17 05:17:32;;;;;;;;;;;;;;;19.81;63.31;100097.69;5024873;28;1438;-54
2021/05/17 05:19:59;;;;;;;;;;;;;;;19.71;61.42;100094.25;5027978;28;1323;-54
2021/05/17 05:22:25;;;;;;;;;;;;;;;19.67;62.60;100090.16;5026132;28;1363;-58
2021/05/17 05:24:53;;;;;;;;;;;;;;;19.68;62.78;100091.88;5028931;28;1557;-48
2021/05/17 05:27:23;;;;;;;;;;;;;;;19.70;65.14;100097.09;5025067;28;1600;-48
2021/05/17 05:30:01;;;;;;;;;;;;;;;19.86;64.23;100092.69;5025119;28;1371;-48
2021/05/17 05:32:31;;;;;;;;;;;;;;;19.89;64.26;100094.22;5028634;28;1973;-56
2021/05/17 05:34:57;;;;;;;;;;;;;;;19.66;63.86;100093.88;5023025;28;1579;-53
2021/05/17 05:37:24;;;;;;;;;;;;;;;19.61;64.49;100097.00;5033055;28;1592;-56
2021/05/17 05:39:50;;;;;;;;;;;;;;;19.73;64.57;100094.94;5028209;28;1518;-48
2021/05/17 05:42:17;;;;;;;;;;;;;;;19.81;64.76;100097.69;5023134;28;990;-48
2021/05/17 05:44:44;;;;;;;;;;;;;;;19.78;66.47;100097.19;5019906;28;1667;-56
2021/05/17 05:47:14;;;;;;;;;;;;;;;19.78;65.61;100097.19;5022371;28;1363;-56
2021/05/17 05:49:40;;;;;;;;;;;;;;;19.79;66.06;100105.03;5030125;28;1478;-56
2021/05/17 05:52:06;;;;;;;;;;;;;;;19.83;65.04;100101.03;5025867;28;1902;-56
2021/05/17 05:54:34;;;;;;;;;;;;;;;19.83;65.34;100082.25;5030157;28;1499;-48
2021/05/17 05:57:00;;;;;;;;;;;;;;;19.94;65.27;100085.72;5026315;28;1426;-48
2021/05/17 05:59:26;;;;;;;;;;;;;;;20.02;64.64;100097.31;5023499;28;1439;-52
2021/05/17 06:01:52;;;;;;;;;;;;;;;19.97;63.16;100105.00;5030139;28;1391;-54
2021/05/17 06:04:20;;;;;;;;;;;;;;;20.43;63.93;100085.94;5024819;28;1498;-54
2021/05/17 06:06:46;;;;;;;;;;;;;;;20.58;61.23;100092.38;5023867;28;1448;-62
2021/05/17 06:09:12;;;;;;;;;;;;;;;20.20;62.06;100099.94;5030384;28;1563;-65
2021/05/17 06:11:39;;;;;;;;;;;;;;;20.05;62.66;100091.66;5022225;28;1985;-54
2021/05/17 06:14:06;;;;;;;;;;;;;;;19.97;63.18;100074.63;5028227;28;1181;-54
2021/05/17 06:16:34;;;;;;;;;;;;;;;19.93;64.43;100100.09;5025020;28;1698;-66
2021/05/17 06:19:01;;;;;;;;;;;;;;;20.36;63.91;100084.94;5023190;28;1589;-62
2021/05/17 06:21:27;;;;;;;;;;;;;;;20.46;64.22;100091.00;5029991;28;1416;-57
2021/05/17 06:23:55;;;;;;;;;;;;;;;20.23;63.22;100086.22;5032388;28;1335;-60
2021/05/17 06:26:22;;;;;;;;;;;;;;;20.08;64.06;100093.16;5025020;28;1590;-60
2021/05/17 06:28:49;;;;;;;;;;;;;;;20.02;63.29;100088.44;5028399;28;1610;-60
2021/05/17 06:31:16;;;;;;;;;;;;;;;20.04;64.05;100087.28;5029212;28;1902;-60
2021/05/17 06:33:42;;;;;;;;;;;;;;;20.02;63.54;100088.44;5027953;28;1586;-59
2021/05/17 06:36:11;;;;;;;;;;;;;;;20.06;64.49;100074.53;5026227;28;1400;-60
2021/05/17 06:38:40;;;;;;;;;;;;;;;20.10;64.88;100087.66;5032692;28;1481;-70
2021/05/17 06:41:06;;;;;;;;;;;;;;;20.24;65.35;100070.94;5030107;28;1613;-64
2021/05/17 06:43:34;;;;;;;;;;;;;;;20.27;64.31;100078.66;5030727;28;1486;-65
2021/05/17 06:46:01;;;;;;;;;;;;;;;20.30;65.16;100075.66;5025761;28;1369;-62
2021/05/17 06:48:28;;;;;;;;;;;;;;;20.33;64.89;100069.13;5024297;28;1027;-62
2021/05/17 06:50:55;;;;;;;;;;;;;;;20.37;64.67;100060.59;5025089;28;1913;-62
2021/05/17 06:53:21;;;;;;;;;;;;;;;20.38;64.96;100056.06;5025827;28;1545;-59
2021/05/17 06:55:56;;;;;;;;;;;;;;;20.30;65.87;100047.97;5023104;28;1534;-58
2021/05/17 06:58:23;;;;;;;;;;;;;;;20.30;66.36;100056.03;5025438;28;1429;-58
2021/05/17 07:00:49;;;;;;;;;;;;;;;20.30;66.28;100047.97;5021500;28;1880;-59
2021/05/17 07:03:16;;;;;;;;;;;;;;;20.24;66.41;100039.56;5021365;28;1465;-57
2021/05/17 07:05:42;;;;;;;;;;;;;;;20.25;65.96;100051.13;5029375;28;1529;-58
2021/05/17 07:13:37;;;;;;;;;;;;;;;20.22;65.67;100063.03;5030043;28;1529;-58
2021/05/17 07:16:03;;;;;;;;;;;;;;;20.26;65.88;100061.72;5024922;28;1637;-61
2021/05/17 07:18:30;;;;;;;;;;;;;;;20.47;65.59;100065.81;5028106;28;1359;-59
2021/05/17 07:23:41;;;;;;;;;;;;;;;20.27;66.40;100066.09;5032687;28;1553;-55
2021/05/17 07:26:08;;;;;;;;;;;;;;;20.29;66.40;100059.72;5025826;28;1793;-56
2021/05/17 07:28:34;;;;;;;;;;;;;;;20.25;65.61;100069.91;5023520;28;1785;-58
2021/05/17 07:31:03;;;;;;;;;;;;;;;20.22;66.81;100067.56;5024615;28;1969;-56
2021/05/17 07:33:30;;;;;;;;;;;;;;;20.21;66.70;100069.44;5025724;28;2001;-61
2021/05/17 07:35:56;;;;;;;;;;;;;;;20.25;66.69;100062.72;5023372;28;1583;-60
2021/05/17 07:38:27;;;;;;;;;;;;;;;20.25;66.54;100068.09;5032207;28;1596;-57
2021/05/17 07:40:53;;;;;;;;;;;;;;;20.22;66.13;100063.03;5025925;28;1772;-61
2021/05/17 07:43:19;;;;;;;;;;;;;;;20.29;65.61;100057.84;5014136;28;1583;-65
2021/05/17 07:45:45;;;;;;;;;;;;;;;20.23;66.02;100054.00;5030289;28;1199;-58
2021/05/17 07:48:12;;;;;;;;;;;;;;;20.27;66.41;100066.09;5021194;28;1187;-68
2021/05/17 07:50:39;;;;;;;;;;;;;;;20.34;65.35;100050.16;5024941;28;1989;-57
2021/05/17 07:53:05;;;;;;;;;;;;;;;20.29;66.14;100039.06;5021124;28;1633;-69
2021/05/17 07:55:31;;;;;;;;;;;;;;;20.29;65.92;100031.00;5029510;28;1351;-57
2021/05/17 07:57:57;;;;;;;;;;;;;;;20.31;65.55;100037.06;5023912;28;1610;-60
2021/05/17 08:00:24;;;;;;;;;;;;;;;20.29;65.84;100046.28;5031431;28;1548;-55
2021/05/17 08:02:50;;;;;;;;;;;;;;;20.23;65.98;100032.53;5033807;28;1654;-56
2021/05/17 08:05:17;;;;;;;;;;;;;;;20.26;66.10;100037.56;5027467;28;1359;-55
2021/05/17 08:07:44;;;;;;;;;;;;;;;20.32;66.07;100035.22;5027825;28;1634;-63
2021/05/17 08:10:11;;;;;;;;;;;;;;;20.25;67.36;100030.50;5023063;28;1459;-61
2021/05/17 08:12:37;;;;;;;;;;;;;;;20.18;66.55;100034.00;5025976;28;1906;-56
2021/05/17 08:15:04;;;;;;;;;;;;;;;20.19;67.19;100032.97;5029732;28;1353;-62
2021/05/17 08:17:31;;;;;;;;;;;;;;;20.13;66.69;100037.16;5030505;28;1363;-56
2021/05/17 08:19:57;;;;;;;;;;;;;;;20.13;67.07;100033.63;5024211;28;1261;-62
2021/05/17 08:22:23;;;;;;;;;;;;;;;20.11;66.41;100043.69;5030746;28;1324;-63
2021/05/17 08:24:50;;;;;;;;;;;;;;;20.18;66.02;100034.00;5030331;28;1670;-63
2021/05/17 08:27:16;;;;;;;;;;;;;;;20.23;65.92;100043.25;5026009;28;1598;-56
2021/05/17 08:29:43;;;;;;;;;;;;;;;20.20;66.25;100034.69;5030276;28;1720;-64
2021/05/17 08:32:10;;;;;;;;;;;;;;;20.12;66.19;100040.84;5031398;28;1969;-55
2021/05/17 08:34:36;;;;;;;;;;;;;;;20.14;66.25;100041.53;5033204;28;1354;-56
2021/05/17 08:37:03;;;;;;;;;;;;;;;20.10;65.82;100047.38;5025959;28;1570;-56
2021/05/17 08:39:29;;;;;;;;;;;;;;;20.06;65.08;100047.69;5032428;28;1361;-56
2021/05/17 08:41:57;;;;;;;;;;;;;;;20.04;65.50;100047.00;5032594;28;1630;-63
2021/05/17 08:44:24;;;;;;;;;;;;;;;20.04;64.27;100041.66;5027369;28;1502;-64
2021/05/17 08:46:50;;;;;;;;;;;;;;;20.01;64.77;100038.44;5029214;28;1323;-56
2021/05/17 08:49:16;;;;;;;;;;;;;;;20.05;64.20;100043.34;5031336;28;1366;-64
2021/05/17 08:51:43;;;;;;;;;;;;;;;20.08;64.13;100036.81;5027066;28;1988;-56
2021/05/17 08:54:10;;;;;;;;;;;;;;;20.09;64.38;100041.16;5030843;28;1316;-64
2021/05/17 08:56:43;;;;;;;;;;;;;;;20.07;64.02;100037.78;5032910;28;1111;-56
2021/05/17 08:59:11;;;;;;;;;;;;;;;20.06;65.01;100026.22;5026440;28;1115;-56
2021/05/17 09:01:37;;;;;;;;;;;;;;;20.03;65.42;100039.13;5027311;28;1542;-56
2021/05/17 09:04:04;;;;;;;;;;;;;;;20.00;64.51;100032.22;5029828;28;1626;-56
2021/05/17 09:06:37;;;;;;;;;;;;;;;20.04;65.23;100032.75;5028104;28;1521;-56
2021/05/17 09:09:03;;;;;;;;;;;;;;;20.12;63.97;100016.69;5014870;28;1638;-56
2021/05/17 09:11:30;;;;;;;;;;;;;;;20.10;63.88;100026.75;5028984;28;1985;-62
2021/05/17 09:14:06;;;;;;;;;;;;;;;20.10;65.02;100016.00;5023285;28;1572;-56
2021/05/17 09:16:44;;;;;;;;;;;;;;;20.11;64.93;100006.09;5027382;28;1599;-56
2021/05/17 09:19:11;;;;;;;;;;;;;;;20.10;64.15;100012.50;5026976;28;1521;-55
2021/05/17 09:21:43;;;;;;;;;;;;;;;20.10;64.11;100004.44;5024145;28;1526;-55
2021/05/17 09:24:29;;;;;;;;;;;;;;;20.10;64.10;100005.28;5032513;28;1598;-60
2021/05/17 09:26:56;;;;;;;;;;;;;;;20.15;64.84;100002.94;5030797;28;1553;-56
2021/05/17 09:29:23;;;;;;;;;;;;;;;20.15;64.04;100008.28;5027944;28;1360;-62
2021/05/17 09:31:50;;;;;;;;;;;;;;;20.17;64.13;100011.66;5028897;28;1902;-61
2021/05/17 09:34:16;;;;;;;;;;;;;;;20.15;64.65;100002.94;5027101;28;1599;-62
2021/05/17 09:36:42;;;;;;;;;;;;;;;20.08;64.65;100003.75;5027725;28;1590;-58
2021/05/17 09:39:09;;;;;;;;;;;;;;;20.08;64.20;100001.06;5029708;28;1343;-62
2021/05/17 09:41:40;;;;;;;;;;;;;;;20.11;64.93;100016.84;5028796;28;1509;-62
2021/05/17 09:44:06;;;;;;;;;;;;;;;20.10;64.50;100018.69;5029657;28;1501;-61
2021/05/17 09:46:47;;;;;;;;;;;;;;;20.08;64.67;100017.19;5026382;28;1642;-60
2021/05/17 09:49:14;;;;;;;;;;;;;;;20.10;65.20;100026.75;5028691;28;1845;-59
2021/05/17 09:51:41;;;;;;;;;;;;;;;20.03;64.33;100021.19;5024165;28;1914;-61
2021/05/17 09:54:12;;;;;;;;;;;;;;;20.03;64.87;100018.50;5023127;28;1060;-62
2021/05/17 09:56:38;;;;;;;;;;;;;;;20.04;65.15;100016.66;5022049;28;1498;-60
2021/05/17 09:59:06;;;;;;;;;;;;;;;20.08;64.61;100026.06;5027229;28;1379;-60
2021/05/17 10:01:32;;;;;;;;;;;;;;;20.05;64.66;100019.19;5027930;28;1426;-63
2021/05/17 10:04:01;;;;;;;;;;;;;;;20.07;64.94;100027.06;5031013;28;1601;-64
2021/05/17 10:06:28;;;;;;;;;;;;;;;20.15;64.73;100021.72;5025795;28;1549;-68
2021/05/17 10:08:55;;;;;;;;;;;;;;;20.05;64.22;100005.78;5025869;28;1256;-72
2021/05/17 10:11:22;;;;;;;;;;;;;;;20.04;64.49;100011.28;5025753;28;1902;-71
2021/05/17 10:13:49;;;;;;;;;;;;;;;20.03;64.14;100021.19;5025982;28;1573;-60
2021/05/17 10:16:16;;;;;;;;;;;;;;;20.02;64.11;100014.13;5026921;28;1721;-61
2021/05/17 10:18:43;;;;;;;;;;;;;;;19.97;62.68;100004.88;5027817;28;1642;-72
2021/05/17 10:21:10;;;;;;;;;;;;;;;19.99;63.53;100008.22;5026079;28;1383;-75
2021/05/17 10:23:37;;;;;;;;;;;;;;;20.01;63.05;99995.50;5032896;28;1497;-70
2021/05/17 10:26:07;;;;;;;;;;;;;;;20.03;63.82;100012.28;5026184;28;1605;-60
2021/05/17 10:28:34;;;;;;;;;;;;;;;20.04;63.63;100005.91;5023463;28;1490;-59
2021/05/17 10:31:10;;;;;;;;;;;;;;;20.06;64.35;99999.38;5027551;28;1910;-57
2021/05/17 10:33:36;;;;;;;;;;;;;;;20.08;64.41;99999.22;5025153;28;1439;-59
2021/05/17 10:36:05;;;;;;;;;;;;;;;20.16;64.28;99987.69;5027105;28;1586;-60
2021/05/17 10:38:36;;;;;;;;;;;;;;;20.10;64.25;100004.44;5020192;28;1035;-60
2021/05/17 10:41:32;;;;;;;;;;;;;;;20.09;64.78;100000.88;5025632;28;1215;-59
2021/05/17 10:44:07;;;;;;;;;;;;;;;19.91;60.59;99994.78;5026857;28;1446;-60
2021/05/17 10:46:38;;;;;;;;;;;;;;;19.82;61.67;99999.28;5030557;28;1522;-60
2021/05/17 10:49:24;;;;;;;;;;;;;;;19.91;63.44;100008.19;5026516;28;1505;-60
2021/05/17 10:51:50;;;;;;;;;;;;;;;19.99;63.31;99998.34;5028597;28;1910;-59
2021/05/17 10:54:24;;;;;;;;;;;;;;;20.03;64.04;99998.84;5027946;28;1359;-59
2021/05/17 10:56:55;;;;;;;;;;;;;;;20.07;63.41;99984.09;5024527;28;1345;-60
2021/05/17 11:02:23;;;;;;;;;;;;;;;19.77;62.00;99989.00;5028290;28;1440;-60
2021/05/17 11:05:00;;;;;;;;;;;;;;;19.92;63.71;100001.84;5026797;28;1307;-59
2021/05/17 11:07:27;;;;;;;;;;;;;;;19.99;63.10;99994.81;5023783;28;1104;-58
2021/05/17 11:09:55;;;;;;;;;;;;;;;19.95;64.35;99986.22;5028286;28;1510;-59
2021/05/17 11:12:36;;;;;;;;;;;;;;;19.96;65.13;99989.78;5028756;28;1906;-59
2021/05/17 11:15:04;;;;;;;;;;;;;;;20.01;65.09;99987.44;5029374;28;1427;-59
2021/05/17 11:17:30;;;;;;;;;;;;;;;19.99;65.66;99986.75;5031005;28;1340;-61
2021/05/17 11:19:57;;;;;;;;;;;;;;;20.02;65.47;99981.09;5025828;28;2018;-58
2021/05/17 11:22:46;;;;;;;;;;;;;;;20.00;65.48;99985.78;5029374;28;1553;-61
2021/05/17 11:25:12;;;;;;;;;;;;;;;20.01;65.62;99990.97;5025368;28;1470;-61
2021/05/17 11:27:47;;;;;;;;;;;;;;;20.07;65.79;99978.75;5027577;28;1567;-62
2021/05/17 11:30:47;;;;;;;;;;;;;;;20.00;65.87;99983.94;5027873;28;1439;-59
2021/05/17 11:33:15;;;;;;;;;;;;;;;19.98;66.13;99982.41;4951116;29;2076;-59
2021/05/17 11:35:59;;;;;;;;;;;;;;;19.98;66.74;99990.47;4946425;28;1428;-59
2021/05/17 11:38:26;;;;;;;;;;;;;;;19.93;65.94;99971.31;4997359;28;1172;-62
2021/05/17 11:40:52;;;;;;;;;;;;;;;19.94;66.77;99962.28;5030319;28;1657;-59
2021/05/17 11:43:18;;;;;;;;;;;;;;;19.95;65.91;99982.72;5019202;28;1578;-59
2021/05/17 11:45:45;;;;;;;;;;;;;;;19.92;66.58;99980.38;5028445;28;1070;-62
2021/05/17 11:48:11;;;;;;;;;;;;;;;19.95;65.95;99963.94;5028241;28;1780;-62
2021/05/17 11:50:38;;;;;;;;;;;;;;;19.91;66.00;99968.78;5028339;28;1510;-62
2021/05/17 11:53:05;;;;;;;;;;;;;;;19.91;65.96;99968.78;5026497;28;1915;-63
2021/05/17 11:55:31;;;;;;;;;;;;;;;19.91;66.23;99970.63;5021883;28;1503;-59
2021/05/17 11:57:57;;;;;;;;;;;;;;;19.88;66.56;99965.59;5027376;28;1642;-62
2021/05/17 12:00:25;;;;;;;;;;;;;;;19.86;66.38;99961.22;5026277;28;1407;-62
2021/05/17 12:02:52;;;;;;;;;;;;;;;19.88;66.53;99954.88;5025884;28;1420;-63
2021/05/17 12:05:19;;;;;;;;;;;;;;;19.86;65.71;99961.22;5026311;28;1095;-62
2021/05/17 12:07:46;;;;;;;;;;;;;;;19.89;66.53;99962.72;5029877;28;1784;-59
2021/05/17 12:10:13;;;;;;;;;;;;;;;19.86;65.90;99961.22;5021420;28;1784;-62
2021/05/17 12:12:40;;;;;;;;;;;;;;;19.85;65.71;99959.53;5026283;28;1970;-60
2021/05/17 12:15:09;;;;;;;;;;;;;;;19.87;66.58;99972.78;5024151;28;1574;-59
2021/05/17 12:17:36;;;;;;;;;;;;;;;19.85;66.08;99964.06;5028264;28;1392;-59
2021/05/17 12:20:04;;;;;;;;;;;;;;;19.87;65.71;99964.72;5027593;28;1503;-62
2021/05/17 12:22:32;;;;;;;;;;;;;;;19.89;66.53;99970.78;5025940;28;984;-60
2021/05/17 12:24:59;;;;;;;;;;;;;;;19.85;65.91;99946.09;5019705;28;1713;-62
2021/05/17 12:27:26;;;;;;;;;;;;;;;19.83;66.17;99966.91;5028339;28;1633;-63
2021/05/17 12:29:53;;;;;;;;;;;;;;;19.84;65.63;99970.44;5028165;28;1519;-60
2021/05/17 12:32:22;;;;;;;;;;;;;;;19.82;66.51;99956.34;5026498;28;2003;-59
2021/05/17 12:34:55;;;;;;;;;;;;;;;19.80;65.88;99953.81;5027073;28;1650;-59
2021/05/17 12:37:22;;;;;;;;;;;;;;;19.82;66.56;99959.88;5026119;28;1076;-62
2021/05/17 12:40:03;;;;;;;;;;;;;;;19.84;66.13;99952.50;5031812;28;1338;-62
2021/05/17 12:42:30;;;;;;;;;;;;;;;19.85;66.46;99954.16;5027258;28;2068;-59
2021/05/17 12:45:02;;;;;;;;;;;;;;;19.82;66.26;99943.75;5029818;28;1784;-62
2021/05/17 12:47:36;;;;;;;;;;;;;;;19.84;65.87;99949.81;5025782;28;1518;-62
2021/05/17 12:50:03;;;;;;;;;;;;;;;19.85;65.99;99947.97;5025532;28;1595;-62
2021/05/17 12:52:34;;;;;;;;;;;;;;;19.87;66.75;99956.69;5025699;28;1910;-59
2021/05/17 12:55:17;;;;;;;;;;;;;;;19.85;66.70;99954.16;5025169;28;1772;-62
2021/05/17 12:57:45;;;;;;;;;;;;;;;19.84;66.22;99952.50;5027075;28;1609;-63
2021/05/17 13:00:12;;;;;;;;;;;;;;;19.85;66.79;99953.31;5023362;28;1618;-59
2021/05/17 13:02:38;;;;;;;;;;;;;;;19.86;66.82;99963.91;5027004;28;1571;-60
2021/05/17 13:05:05;;;;;;;;;;;;;;;19.84;66.08;99967.75;5026836;28;1271;-59
2021/05/17 13:07:31;;;;;;;;;;;;;;;19.82;67.13;99959.88;5025975;28;1034;-60
2021/05/17 13:09:58;;;;;;;;;;;;;;;19.83;66.23;99961.53;5018357;28;1522;-63
2021/05/17 13:12:24;;;;;;;;;;;;;;;19.84;66.13;99970.44;5027275;28;1910;-60